Time;durP1;ratioP1;P1;durP2;ratioP2;P2;SDS_P1;SDS_P2;PMS_P1;PMS_P2;Temp;Humidity;BMP_temperature;BMP_pressure;BME280_temperature;BME280_humidity;BME280_pressure;Samples;Min_cycle;Max_cycle;Signal;HPM_P1;HPM_P2
2021/06/11 00:01:05;;;;;;;5.30;4.45;;;;;;;13.87;86.49;98773.53;5035593;28;20026;-62
2021/06/11 00:03:31;;;;;;;5.13;4.50;;;;;;;13.76;86.63;98773.84;5039587;28;20040;-62
2021/06/11 00:05:56;;;;;;;6.78;5.00;;;;;;;13.73;86.97;98775.72;5046611;28;20044;-62
2021/06/11 00:08:22;;;;;;;6.32;4.57;;;;;;;13.78;87.01;98773.81;5046509;28;20021;-62
2021/06/11 00:10:47;;;;;;;5.70;4.72;;;;;;;13.70;86.44;98774.03;5046606;28;20021;-62
2021/06/11 00:13:13;;;;;;;5.20;4.70;;;;;;;13.66;87.04;98771.50;5046484;28;20028;-62
2021/06/11 00:15:39;;;;;;;5.90;4.20;;;;;;;13.75;86.99;98784.47;5046482;28;20316;-62
2021/06/11 00:18:04;;;;;;;5.07;4.53;;;;;;;13.74;86.30;98772.16;5046421;28;20220;-62
2021/06/11 00:20:30;;;;;;;6.22;4.00;;;;;;;13.66;86.90;98782.09;5046361;28;20017;-62
2021/06/11 00:22:56;;;;;;;5.22;4.38;;;;;;;13.58;86.56;98781.47;5046363;28;20339;-63
2021/06/11 00:25:23;;;;;;;5.47;4.97;;;;;;;13.74;87.06;98780.97;5046288;28;20024;-64
2021/06/11 00:27:49;;;;;;;8.05;4.97;;;;;;;13.61;86.95;98771.69;5046466;28;20209;-64
2021/06/11 00:30:18;;;;;;;7.25;4.25;;;;;;;13.60;87.09;98779.66;5028320;28;20309;-64
2021/06/11 00:32:44;;;;;;;4.60;3.78;;;;;;;13.59;86.71;98785.84;5026334;28;20022;-64
2021/06/11 00:35:10;;;;;;;8.25;4.60;;;;;;;13.65;86.79;98775.06;5026292;28;20045;-64
2021/06/11 00:37:35;;;;;;;4.82;4.43;;;;;;;13.67;86.62;98781.19;5026237;28;20057;-64
2021/06/11 00:40:01;;;;;;;5.32;4.22;;;;;;;13.50;86.57;98788.72;5026017;28;20337;-64
2021/06/11 00:42:29;;;;;;;4.82;4.43;;;;;;;13.45;86.62;98785.38;5026066;28;20033;-64
2021/06/11 00:44:55;;;;;;;6.22;4.70;;;;;;;13.57;86.83;98787.66;5026095;28;20320;-64
2021/06/11 00:47:20;;;;;;;6.03;4.55;;;;;;;13.57;86.61;98785.03;5026005;28;20045;-64
2021/06/11 00:49:48;;;;;;;5.40;4.50;;;;;;;13.55;86.70;98776.25;5025948;28;20068;-64
2021/06/11 00:52:14;;;;;;;8.63;4.53;;;;;;;13.45;87.27;98780.09;5027072;28;20040;-64
2021/06/11 00:54:40;;;;;;;6.68;4.63;;;;;;;13.47;87.07;98788.81;5026001;28;20057;-64
2021/06/11 00:57:06;;;;;;;5.75;4.60;;;;;;;13.50;87.53;98784.31;5025860;28;20325;-64
2021/06/11 00:59:31;;;;;;;5.38;3.83;;;;;;;13.58;86.97;98784.97;5025791;28;20217;-64
2021/06/11 01:01:57;;;;;;;3.80;3.38;;;;;;;13.58;85.61;98782.34;5025775;28;20030;-64
2021/06/11 01:04:22;;;;;;;3.80;3.38;;;;;;;13.63;85.56;98784.81;5025929;28;20025;-64
2021/06/11 01:06:48;;;;;;;5.57;4.25;;;;;;;13.61;86.29;98786.66;5025697;28;20030;-64
2021/06/11 01:09:14;;;;;;;4.13;3.72;;;;;;;13.55;87.14;98787.72;5025560;28;20080;-64
2021/06/11 01:11:42;;;;;;;4.53;3.83;;;;;;;13.66;87.13;98784.72;5025274;28;20028;-64
2021/06/11 01:14:09;;;;;;;4.10;3.70;;;;;;;13.73;87.11;98779.22;5025812;28;20026;-64
2021/06/11 01:16:36;;;;;;;3.67;3.38;;;;;;;13.76;86.28;98781.78;5025499;28;20029;-64
2021/06/11 01:19:02;;;;;;;5.40;3.60;;;;;;;13.79;86.06;98786.13;5029601;28;20024;-64
2021/06/11 01:21:30;;;;;;;5.35;3.72;;;;;;;13.83;85.15;98788.63;5045209;28;20029;-64
2021/06/11 01:24:16;;;;;;;6.28;3.05;;;;;;;13.88;85.45;98791.13;5045144;28;20029;-64
2021/06/11 01:26:48;;;;;;;8.55;4.00;;;;;;;13.86;85.75;98785.03;5045128;28;20017;-64
2021/06/11 01:29:24;;;;;;;4.10;3.80;;;;;;;13.84;86.22;98786.84;5044985;28;20029;-64
2021/06/11 01:31:53;;;;;;;4.68;4.15;;;;;;;13.87;85.62;98789.41;5045132;28;20041;-64
2021/06/11 01:34:29;;;;;;;7.07;3.58;;;;;;;13.91;85.42;98781.34;5045221;28;20052;-64
2021/06/11 01:37:02;;;;;;;4.40;4.00;;;;;;;13.83;86.03;98793.06;5043418;28;20213;-64
2021/06/11 01:39:28;;;;;;;;;;;;;;;13.79;86.11;98789.63;5045128;28;20020;-64
2021/06/11 01:41:56;;;;;;;5.43;3.97;;;;;;;13.73;86.24;98789.81;5044680;28;20209;-64
2021/06/11 01:44:23;;;;;;;3.95;3.65;;;;;;;13.60;86.65;98792.88;5044806;28;20032;-64
2021/06/11 01:46:54;;;;;;;4.88;4.38;;;;;;;13.58;87.08;98792.91;5044743;28;20071;-64
2021/06/11 01:49:20;;;;;;;6.70;4.18;;;;;;;13.73;87.16;98796.91;5005275;28;20045;-64
2021/06/11 01:51:46;;;;;;;4.18;3.88;;;;;;;13.82;86.82;98791.31;5005246;28;20049;-64
2021/06/11 01:54:13;;;;;;;4.53;3.92;;;;;;;13.85;85.39;98791.22;5005228;28;20217;-64
2021/06/11 01:56:40;;;;;;;4.15;3.75;;;;;;;13.67;86.12;98789.13;5005156;28;20026;-64
2021/06/11 01:59:06;;;;;;;5.47;3.83;;;;;;;13.64;87.14;98786.56;5005110;28;20210;-64
2021/06/11 02:01:33;;;;;;;4.93;3.92;;;;;;;13.79;86.25;98788.78;5005058;28;20022;-64
2021/06/11 02:04:00;;;;;;;4.57;3.70;;;;;;;13.88;86.13;98791.13;5005299;28;20217;-64
2021/06/11 02:06:27;;;;;;;4.30;3.90;;;;;;;13.86;86.26;98790.31;5005075;28;20029;-64
2021/06/11 02:08:53;;;;;;;4.78;3.80;;;;;;;13.86;86.17;98788.53;5004873;28;20117;-64
2021/06/11 02:11:21;;;;;;;7.15;4.40;;;;;;;13.80;86.22;98794.03;5004912;28;20025;-64
2021/06/11 02:13:53;;;;;;;4.60;4.13;;;;;;;13.71;87.22;98796.06;5005060;28;20164;-64
2021/06/11 02:16:20;;;;;;;4.55;4.03;;;;;;;13.62;87.42;98793.69;5004832;28;20029;-64
2021/06/11 02:18:47;;;;;;;4.85;4.15;;;;;;;13.66;87.58;98784.72;5004768;28;20030;-64
2021/06/11 02:21:14;;;;;;;4.07;3.72;;;;;;;13.66;87.77;98785.63;5004752;28;20037;-64
2021/06/11 02:23:40;;;;;;;5.15;3.78;;;;;;;13.59;87.39;98785.84;5006876;28;20026;-64
2021/06/11 02:26:11;;;;;;;4.40;4.00;;;;;;;13.61;87.59;98778.72;5004698;28;20384;-64
2021/06/11 02:28:37;;;;;;;4.03;3.63;;;;;;;13.71;87.26;98778.44;5004630;28;20090;-64
2021/06/11 02:31:03;;;;;;;4.38;3.97;;;;;;;13.72;86.88;98779.25;5007496;28;20034;-64
2021/06/11 02:33:28;;;;;;;4.80;3.95;;;;;;;13.63;86.69;98784.81;5024278;28;20252;-64
2021/06/11 02:35:55;;;;;;;3.95;3.65;;;;;;;13.55;86.74;98782.44;5024442;28;20055;-64
2021/06/11 02:38:21;;;;;;;5.68;3.85;;;;;;;13.47;86.64;98778.25;5024249;28;20048;-64
2021/06/11 02:40:48;;;;;;;6.35;3.83;;;;;;;13.44;86.75;98779.19;5023926;28;20096;-64
2021/06/11 02:43:15;;;;;;;4.50;3.65;;;;;;;13.50;86.66;98784.31;5024146;28;20317;-64
2021/06/11 02:45:55;;;;;;;4.30;3.60;;;;;;;13.49;86.61;98779.97;5024104;28;20054;-64
2021/06/11 02:48:30;;;;;;;5.70;4.38;;;;;;;13.45;87.44;98780.09;5024103;28;20029;-64
2021/06/11 02:51:21;;;;;;;5.07;3.75;;;;;;;13.39;86.72;98782.91;5024144;28;20028;-64
2021/06/11 02:53:48;;;;;;;4.28;3.88;;;;;;;13.30;87.15;98785.78;5039575;28;20021;-64
2021/06/11 02:56:18;;;;;;;3.95;3.55;;;;;;;13.19;87.38;98788.72;5043797;28;20025;-64
2021/06/11 02:58:46;;;;;;;7.53;4.10;;;;;;;13.21;87.81;98786.03;5044043;28;20017;-64
2021/06/11 03:01:13;;;;;;;4.18;3.72;;;;;;;13.23;87.20;98784.22;5035325;28;20076;-64
2021/06/11 03:03:41;;;;;;;4.20;3.70;;;;;;;13.15;87.74;98781.78;5023915;28;20025;-64
2021/06/11 03:06:09;;;;;;;4.93;3.80;;;;;;;13.09;87.91;98778.47;5024168;28;20214;-64
2021/06/11 03:08:38;;;;;;;4.50;4.10;;;;;;;13.09;88.03;98778.47;5024057;28;20029;-64
2021/06/11 03:11:09;;;;;;;4.47;4.07;;;;;;;13.18;87.70;98781.72;5023843;28;20017;-64
2021/06/11 03:13:35;;;;;;;5.88;3.88;;;;;;;13.28;87.75;98782.31;5024162;28;20209;-64
2021/06/11 03:16:03;;;;;;;4.72;4.00;;;;;;;13.35;87.42;98789.19;5023855;28;20046;-64
2021/06/11 03:18:37;;;;;;;4.63;3.70;;;;;;;13.36;87.24;98782.97;5037742;28;20084;-64
2021/06/11 03:21:15;;;;;;;6.63;3.50;;;;;;;13.38;86.06;98783.81;5040651;28;20083;-64
2021/06/11 03:23:46;;;;;;;4.28;3.40;;;;;;;13.42;85.95;98785.47;5043578;28;20264;-64
2021/06/11 03:26:18;;;;;;;4.20;3.80;;;;;;;13.36;86.62;98785.63;5041987;28;20036;-64
2021/06/11 03:28:52;;;;;;;7.30;4.25;;;;;;;13.41;86.65;98778.44;5041831;28;20045;-64
2021/06/11 03:31:27;;;;;;;4.00;3.70;;;;;;;13.33;86.96;98789.22;5043450;28;20095;-64
2021/06/11 03:33:58;;;;;;;4.20;3.80;;;;;;;13.26;88.10;98792.06;5037636;28;20137;-64
2021/06/11 03:36:28;;;;;;;5.35;4.00;;;;;;;13.21;87.82;98786.91;5046004;28;20018;-64
2021/06/11 03:39:00;;;;;;;5.72;3.60;;;;;;;13.31;87.97;98787.50;5043145;28;20120;-64
2021/06/11 03:41:25;;;;;;;3.97;3.67;;;;;;;13.25;87.83;98788.56;5042930;28;20037;-64
2021/06/11 03:43:53;;;;;;;5.28;4.20;;;;;;;13.19;87.91;98790.53;5044592;28;20043;-64
2021/06/11 03:46:19;;;;;;;4.65;4.07;;;;;;;13.21;88.25;98792.19;5044282;28;20021;-64
2021/06/11 03:48:49;;;;;;;5.05;3.50;;;;;;;13.35;87.33;98789.19;5043078;28;20110;-64
2021/06/11 03:51:16;;;;;;;6.07;3.80;;;;;;;13.39;86.26;98793.47;5041421;28;20023;-64
2021/06/11 03:53:43;;;;;;;3.70;3.40;;;;;;;13.45;85.58;98790.66;5031799;28;20037;-64
2021/06/11 03:56:11;;;;;;;3.95;3.55;;;;;;;13.43;85.99;98792.47;5028488;28;20021;-64
2021/06/11 03:58:40;;;;;;;3.60;3.30;;;;;;;13.43;85.89;98787.19;5028409;28;20013;-64
2021/06/11 04:01:08;;;;;;;3.47;3.17;;;;;;;13.45;86.30;98790.66;5028525;28;20093;-64
2021/06/11 04:03:37;;;;;;;4.18;3.17;;;;;;;13.47;86.64;98794.09;5031094;28;20313;-64
2021/06/11 04:06:10;;;;;;;4.28;3.20;;;;;;;13.49;86.49;98794.94;5039713;28;20110;-64
2021/06/11 04:08:35;;;;;;;7.13;3.38;;;;;;;13.43;87.04;98788.06;5039344;28;20384;-64
2021/06/11 04:11:03;;;;;;;5.53;3.60;;;;;;;13.49;86.23;98787.00;5034245;28;20026;-64
2021/06/11 04:13:28;;;;;;;3.70;3.40;;;;;;;13.53;85.98;98789.53;5025353;28;20089;-64
2021/06/11 04:15:55;;;;;;;4.43;3.10;;;;;;;13.57;86.45;98792.97;5041277;28;20037;-64
2021/06/11 04:18:28;;;;;;;3.90;3.42;;;;;;;13.64;86.07;98797.16;5045555;28;20055;-64
2021/06/11 04:20:58;;;;;;;4.13;3.05;;;;;;;13.63;85.37;98796.28;5037220;28;20212;-64
2021/06/11 04:23:26;;;;;;;3.83;3.53;;;;;;;13.53;85.79;98794.81;5027706;28;20022;-64
2021/06/11 04:25:54;;;;;;;3.67;3.33;;;;;;;13.55;85.61;98794.78;5027984;28;20022;-64
2021/06/11 04:28:22;;;;;;;4.15;3.65;;;;;;;13.62;85.10;98797.19;5037885;28;20020;-64
2021/06/11 04:30:50;;;;;;;3.40;3.10;;;;;;;13.90;84.85;98802.53;5039071;28;20313;-64
2021/06/11 04:33:23;;;;;;;4.15;3.30;;;;;;;14.47;83.37;98795.47;5031347;28;20021;-64
2021/06/11 04:35:50;;;;;;;3.50;3.10;;;;;;;15.00;80.34;98799.88;5030097;28;20021;-65
2021/06/11 04:38:16;;;;;;;3.83;3.25;;;;;;;15.63;78.30;98802.06;5029743;28;20017;-65
2021/06/11 04:40:42;;;;;;;6.82;2.80;;;;;;;16.13;75.93;98798.31;5042416;28;20060;-64
2021/06/11 04:43:07;;;;;;;3.17;2.80;;;;;;;16.57;74.06;98805.44;5034125;28;20024;-64
2021/06/11 04:45:34;;;;;;;2.28;2.08;;;;;;;16.94;72.92;98801.22;5043391;28;20088;-64
2021/06/11 04:47:59;;;;;;;6.63;2.45;;;;;;;17.36;71.71;98808.25;5038864;28;20017;-64
2021/06/11 04:50:26;;;;;;;5.90;2.50;;;;;;;17.66;70.54;98809.63;5041005;28;20022;-64
2021/06/11 04:52:51;;;;;;;5.85;2.30;;;;;;;17.97;69.88;98802.81;5040896;28;20347;-64
2021/06/11 04:55:17;;;;;;;2.90;2.30;;;;;;;18.04;69.04;98808.75;5032113;28;20014;-62
2021/06/11 04:57:42;;;;;;;4.40;2.40;;;;;;;18.38;68.51;98803.59;5025930;28;20026;-62
2021/06/11 05:00:09;;;;;;;3.60;2.20;;;;;;;18.64;67.62;98806.69;5025875;28;20018;-62
2021/06/11 05:02:34;;;;;;;2.78;2.38;;;;;;;18.92;66.13;98806.22;5025752;28;20089;-62
2021/06/11 05:05:00;;;;;;;5.05;2.28;;;;;;;19.16;65.17;98810.31;5026020;28;20028;-62
2021/06/11 05:07:26;;;;;;;4.25;2.53;;;;;;;19.27;66.11;98813.34;5025719;28;20317;-62
2021/06/11 05:09:51;;;;;;;2.70;2.40;;;;;;;19.41;66.22;98805.47;5025601;28;20029;-62
2021/06/11 05:12:17;;;;;;;2.72;2.30;;;;;;;20.00;64.76;98799.63;5025621;28;20336;-62
2021/06/11 05:14:42;;;;;;;2.20;2.10;;;;;;;20.25;62.60;98800.88;5025592;28;20045;-62
2021/06/11 05:17:08;;;;;;;4.00;2.25;;;;;;;20.37;62.72;98797.53;5025588;28;20028;-62
2021/06/11 05:19:33;;;;;;;2.13;1.90;;;;;;;20.43;62.89;98810.56;5025534;28;20025;-62
2021/06/11 05:21:59;;;;;;;3.85;2.17;;;;;;;20.58;62.50;98803.50;5025430;28;20053;-62
2021/06/11 05:24:24;;;;;;;3.42;2.63;;;;;;;20.72;63.33;98812.44;5025398;28;20021;-62
2021/06/11 05:26:50;;;;;;;3.13;2.20;;;;;;;21.06;61.51;98806.91;5025511;28;20028;-62
2021/06/11 05:29:15;;;;;;;3.25;2.30;;;;;;;21.33;60.53;98806.22;5025242;28;20328;-62
2021/06/11 05:31:42;;;;;;;4.47;2.30;;;;;;;21.57;60.93;98812.81;5025273;28;20072;-62
2021/06/11 05:34:07;;;;;;;3.83;2.15;;;;;;;21.80;60.14;98809.59;5025263;28;20026;-62
2021/06/11 05:36:33;;;;;;;3.83;2.80;;;;;;;22.39;59.31;98801.31;5025207;28;20345;-62
2021/06/11 05:38:58;;;;;;;5.05;2.45;;;;;;;22.37;59.21;98800.59;5025170;28;20018;-62
2021/06/11 05:41:24;;;;;;;4.32;2.65;;;;;;;22.61;59.21;98805.25;5024976;28;20213;-62
2021/06/11 05:43:51;;;;;;;6.88;2.25;;;;;;;22.56;58.36;98803.84;5025371;28;20128;-62
2021/06/11 05:46:16;;;;;;;3.35;2.25;;;;;;;22.78;58.17;98809.53;5024983;28;20017;-62
2021/06/11 05:48:43;;;;;;;2.65;2.00;;;;;;;23.09;57.31;98811.88;5024902;28;20101;-62
2021/06/11 05:51:09;;;;;;;5.35;2.58;;;;;;;22.88;57.40;98808.78;5025176;28;20025;-62
2021/06/11 05:53:35;;;;;;;3.90;2.20;;;;;;;23.10;57.35;98808.25;5024891;28;20221;-62
2021/06/11 05:56:01;;;;;;;3.33;2.45;;;;;;;23.04;59.02;98814.03;5024854;28;20372;-62
2021/06/11 05:58:27;;;;;;;4.85;2.20;;;;;;;23.17;57.15;98815.81;5023842;28;20190;-62
2021/06/11 06:00:52;;;;;;;3.95;2.58;;;;;;;23.05;57.86;98805.88;5024790;28;20085;-62
2021/06/11 06:03:18;;;;;;;4.25;2.35;;;;;;;23.34;57.37;98811.97;5024713;28;20148;-62
2021/06/11 06:05:43;;;;;;;2.60;2.40;;;;;;;23.61;56.76;98820.84;5024930;28;20212;-62
2021/06/11 06:08:09;;;;;;;4.32;1.92;;;;;;;24.07;56.62;98819.38;5024624;28;20213;-62
2021/06/11 06:10:34;;;;;;;2.40;2.20;;;;;;;24.52;55.79;98813.41;5024537;28;20351;-62
2021/06/11 06:12:59;;;;;;;3.78;2.40;;;;;;;25.19;52.66;98818.22;5024597;28;20264;-62
2021/06/11 06:15:25;;;;;;;2.75;2.25;;;;;;;24.98;53.86;98825.25;5024525;28;20045;-62
2021/06/11 06:17:51;;;;;;;4.15;2.20;;;;;;;25.36;51.69;98816.13;5024490;28;20021;-62
2021/06/11 06:20:16;;;;;;;4.22;2.22;;;;;;;25.53;52.08;98831.88;5024432;28;20021;-62
2021/06/11 06:22:42;;;;;;;3.22;2.00;;;;;;;25.85;53.89;98819.47;5024362;28;20022;-62
2021/06/11 06:25:09;;;;;;;4.35;2.33;;;;;;;25.89;52.30;98823.63;5024402;28;20088;-62
2021/06/11 06:27:36;;;;;;;3.00;1.92;;;;;;;26.17;53.21;98818.69;5024597;28;20312;-63
2021/06/11 06:30:03;;;;;;;2.70;2.20;;;;;;;26.67;52.72;98820.03;5024220;28;20198;-63
2021/06/11 06:32:30;;;;;;;2.85;2.28;;;;;;;26.99;49.78;98824.50;5024544;28;20026;-63
2021/06/11 06:34:57;;;;;;;3.13;2.40;;;;;;;27.31;48.32;98816.44;5024197;28;20021;-63
2021/06/11 06:37:22;;;;;;;2.78;2.30;;;;;;;27.62;47.64;98822.81;5024197;28;20036;-63
2021/06/11 06:39:49;;;;;;;3.13;2.30;;;;;;;27.83;44.71;98816.41;5024022;28;20018;-63
2021/06/11 06:42:14;;;;;;;3.58;2.40;;;;;;;28.02;44.94;98821.97;5024122;28;20021;-63
2021/06/11 06:44:40;;;;;;;3.97;2.08;;;;;;;27.78;47.88;98824.09;5024126;28;20024;-63
2021/06/11 06:47:06;;;;;;;4.90;2.47;;;;;;;27.53;48.02;98824.47;5024126;28;20028;-63
2021/06/11 06:49:34;;;;;;;4.07;2.30;;;;;;;28.00;46.98;98823.94;5024053;28;20046;-63
2021/06/11 06:52:00;;;;;;;2.83;2.35;;;;;;;28.46;45.16;98820.81;5024030;28;20029;-63
2021/06/11 06:54:26;;;;;;;5.40;2.30;;;;;;;28.54;45.01;98821.81;5024048;28;20052;-63
2021/06/11 06:56:51;;;;;;;4.28;2.20;;;;;;;28.57;44.17;98821.56;5024112;28;20084;-63
2021/06/11 06:59:17;;;;;;;6.80;2.17;;;;;;;28.60;45.08;98818.56;5024013;28;20018;-63
2021/06/11 07:01:42;;;;;;;2.60;2.10;;;;;;;28.72;45.46;98827.44;5024228;28;20252;-63
2021/06/11 07:04:07;;;;;;;3.38;2.13;;;;;;;28.63;45.73;98823.72;5023944;28;20079;-63
2021/06/11 07:06:33;;;;;;;5.30;2.35;;;;;;;29.00;42.76;98822.13;5023928;28;20032;-63
2021/06/11 07:08:59;;;;;;;2.47;2.15;;;;;;;29.27;42.55;98820.59;5023885;28;20018;-63
2021/06/11 07:11:25;;;;;;;4.00;2.00;;;;;;;29.12;45.01;98820.16;5027549;28;20328;-63
2021/06/11 07:13:51;;;;;;;6.07;2.10;;;;;;;29.21;43.15;98820.16;5028124;28;20189;-63
2021/06/11 07:16:17;;;;;;;6.07;2.03;;;;;;;29.66;42.02;98822.34;5027836;28;20040;-63
2021/06/11 07:18:42;;;;;;;4.30;1.70;;;;;;;29.78;39.63;98821.19;5027809;28;20200;-63
2021/06/11 07:21:08;;;;;;;2.63;1.75;;;;;;;29.85;38.71;98816.91;5027995;28;20033;-63
2021/06/11 07:23:35;;;;;;;4.30;1.95;;;;;;;29.94;39.26;98814.19;5027950;28;20041;-63
2021/06/11 07:26:05;;;;;;;2.85;1.80;;;;;;;30.23;38.13;98808.69;5027906;28;20022;-63
2021/06/11 07:28:31;;;;;;;2.67;1.83;;;;;;;29.96;38.55;98812.16;5027498;28;20021;-63
2021/06/11 07:30:56;;;;;;;2.17;1.40;;;;;;;29.94;38.92;98819.59;5027571;28;20029;-63
2021/06/11 07:33:22;;;;;;;3.90;1.70;;;;;;;30.19;37.34;98819.00;5027556;28;20060;-63
2021/06/11 07:35:47;;;;;;;3.13;1.73;;;;;;;29.64;38.45;98818.94;5027433;28;20029;-63
2021/06/11 07:38:13;;;;;;;1.90;1.40;;;;;;;30.64;39.11;98819.09;5027686;28;20018;-63
2021/06/11 07:40:38;;;;;;;1.95;1.40;;;;;;;30.84;37.53;98815.31;5027268;28;20037;-63
2021/06/11 07:43:04;;;;;;;3.28;1.30;;;;;;;30.65;35.52;98815.38;5027320;28;20017;-63
2021/06/11 07:45:30;;;;;;;4.88;1.50;;;;;;;29.79;35.27;98812.03;5027325;28;20325;-63
2021/06/11 07:47:56;;;;;;;2.33;1.45;;;;;;;30.72;37.05;98819.22;5027241;28;20028;-63
2021/06/11 07:50:22;;;;;;;3.30;1.40;;;;;;;30.63;34.88;98812.81;5027184;28;20022;-63
2021/06/11 07:52:49;;;;;;;2.28;1.35;;;;;;;30.92;37.32;98818.13;5027156;28;20030;-63
2021/06/11 07:55:15;;;;;;;3.00;1.60;;;;;;;30.76;37.83;98818.81;5027055;28;20018;-63
2021/06/11 07:57:41;;;;;;;2.90;1.55;;;;;;;31.33;36.18;98820.31;5027303;28;20053;-63
2021/06/11 08:00:08;;;;;;;2.00;1.30;;;;;;;31.13;34.68;98826.88;5027057;28;20321;-63
2021/06/11 08:02:34;;;;;;;2.05;1.35;;;;;;;31.47;37.59;98821.66;5026889;28;20128;-63
2021/06/11 08:04:59;;;;;;;1.55;1.33;;;;;;;31.34;34.74;98819.28;5026937;28;20021;-63
2021/06/11 08:07:29;;;;;;;1.45;1.25;;;;;;;31.27;34.97;98817.31;5026941;28;20025;-63
2021/06/11 08:09:58;;;;;;;3.53;1.52;;;;;;;31.70;35.65;98815.53;5026740;28;20137;-63
2021/06/11 08:12:25;;;;;;;2.90;1.27;;;;;;;31.93;34.66;98819.53;5026815;28;20030;-63
2021/06/11 08:14:50;;;;;;;2.15;1.20;;;;;;;32.38;33.36;98814.75;5026701;28;20032;-63
2021/06/11 08:17:16;;;;;;;2.67;1.38;;;;;;;32.27;32.84;98820.41;5026696;28;20034;-63
2021/06/11 08:19:41;;;;;;;4.53;1.40;;;;;;;32.12;32.33;98813.88;5026650;28;20025;-63
2021/06/11 08:22:06;;;;;;;2.58;1.27;;;;;;;31.84;32.89;98817.75;5025503;28;20245;-63
2021/06/11 08:24:32;;;;;;;3.60;1.50;;;;;;;31.82;32.92;98819.75;5009049;28;20025;-63
2021/06/11 08:26:57;;;;;;;2.63;1.50;;;;;;;32.10;34.18;98807.72;5026521;28;20080;-63
2021/06/11 08:29:24;;;;;;;3.72;1.60;;;;;;;32.04;32.43;98808.34;5026373;28;20098;-63
2021/06/11 08:31:50;;;;;;;4.68;1.40;;;;;;;32.51;30.78;98804.25;5026418;28;20029;-63
2021/06/11 08:34:15;;;;;;;2.40;1.27;;;;;;;32.09;32.24;98808.75;5026370;28;20101;-63
2021/06/11 08:36:41;;;;;;;3.35;1.40;;;;;;;32.20;31.34;98813.91;5026351;28;20022;-63
2021/06/11 08:39:06;;;;;;;4.57;1.25;;;;;;;32.14;31.39;98814.56;5026273;28;20305;-63
2021/06/11 08:41:33;;;;;;;2.85;1.25;;;;;;;32.78;30.98;98814.09;5026024;28;20052;-63
2021/06/11 08:43:59;;;;;;;2.50;1.33;;;;;;;33.13;32.11;98815.75;5026214;28;20054;-63
2021/06/11 08:46:26;;;;;;;2.42;1.27;;;;;;;33.25;34.22;98814.44;5026138;28;20034;-63
2021/06/11 08:48:52;;;;;;;1.80;1.20;;;;;;;33.45;31.63;98818.59;5026030;28;20049;-63
2021/06/11 08:51:17;;;;;;;8.68;1.40;;;;;;;33.52;32.51;98814.16;5026062;28;20025;-63
2021/06/11 08:53:43;;;;;;;2.30;1.20;;;;;;;33.73;29.49;98809.06;5026034;28;20336;-63
2021/06/11 08:56:08;;;;;;;3.50;1.20;;;;;;;33.96;29.98;98807.38;5025960;28;20033;-63
2021/06/11 08:58:41;;;;;;;3.08;1.20;;;;;;;34.11;30.81;98808.38;5025949;28;20028;-63
2021/06/11 09:01:07;;;;;;;2.47;1.20;;;;;;;33.70;30.15;98813.00;5025936;28;20364;-63
2021/06/11 09:03:56;;;;;;;4.63;1.38;;;;;;;34.33;29.89;98805.78;5025831;28;20132;-63
2021/06/11 09:06:21;;;;;;;3.00;1.05;;;;;;;34.52;28.92;98805.38;5025816;28;20026;-63
2021/06/11 09:08:54;;;;;;;2.03;1.33;;;;;;;34.21;30.01;98806.31;5025674;28;20022;-63
2021/06/11 09:11:23;;;;;;;2.20;1.23;;;;;;;34.14;30.27;98808.03;5025924;28;20022;-63
2021/06/11 09:14:00;;;;;;;2.78;1.30;;;;;;;33.53;32.54;98804.97;5025646;28;20032;-63
2021/06/11 09:16:27;;;;;;;3.28;1.10;;;;;;;34.77;30.90;98807.00;5025640;28;20220;-63
2021/06/11 09:19:05;;;;;;;2.42;1.20;;;;;;;34.51;31.72;98813.78;5025565;28;20100;-63
2021/06/11 09:21:35;;;;;;;4.38;1.17;;;;;;;34.88;28.76;98811.28;5025539;28;20316;-63
2021/06/11 09:24:15;;;;;;;2.03;1.02;;;;;;;34.77;28.93;98809.75;5025479;28;20030;-63
2021/06/11 09:26:42;;;;;;;2.17;1.10;;;;;;;35.03;28.81;98820.44;5025411;28;20033;-63
2021/06/11 09:29:36;;;;;;;4.38;1.30;;;;;;;34.40;29.99;98811.41;5025495;28;20033;-63
2021/06/11 09:32:09;;;;;;;2.50;1.10;;;;;;;34.16;29.98;98805.97;5025358;28;20029;-63
2021/06/11 09:34:35;;;;;;;1.77;1.10;;;;;;;34.09;30.15;98811.28;5025032;28;20053;-63
2021/06/11 09:37:03;;;;;;;1.20;1.00;;;;;;;33.62;28.96;98803.94;5025268;28;20034;-63
2021/06/11 09:39:43;;;;;;;4.10;1.50;;;;;;;33.51;28.66;98807.00;5025113;28;20064;-63
2021/06/11 09:42:10;;;;;;;2.40;1.10;;;;;;;33.84;30.31;98809.56;5025350;28;20042;-63
2021/06/11 09:44:36;;;;;;;3.53;1.20;;;;;;;34.64;30.10;98814.91;5025185;28;20317;-63
2021/06/11 09:47:02;;;;;;;2.30;1.10;;;;;;;34.29;29.36;98814.50;5025280;28;20033;-63
2021/06/11 09:49:38;;;;;;;3.95;1.45;;;;;;;34.46;29.92;98808.84;5025167;28;20033;-63
2021/06/11 09:52:09;;;;;;;3.70;1.30;;;;;;;34.26;30.36;98814.84;5025028;28;20029;-63
2021/06/11 09:54:35;;;;;;;3.25;1.20;;;;;;;34.65;29.48;98807.59;5024918;28;20026;-63
2021/06/11 09:57:18;;;;;;;4.88;1.50;;;;;;;34.39;28.44;98809.72;5024911;28;20089;-63
2021/06/11 09:59:44;;;;;;;5.80;1.30;;;;;;;34.75;29.58;98800.00;5024833;28;20018;-63
2021/06/11 10:02:17;;;;;;;5.20;1.48;;;;;;;35.06;27.13;98803.66;5024725;28;20025;-63
2021/06/11 10:04:44;;;;;;;3.08;1.20;;;;;;;34.92;27.40;98807.13;5024801;28;20033;-63
2021/06/11 10:07:10;;;;;;;1.75;1.38;;;;;;;34.81;27.76;98804.78;5024642;28;20025;-63
2021/06/11 10:09:36;;;;;;;3.42;1.50;;;;;;;35.07;26.86;98805.34;5024573;28;20033;-63
2021/06/11 10:12:03;;;;;;;3.75;1.83;;;;;;;34.55;27.29;98799.56;5024700;28;20029;-63
2021/06/11 10:14:29;;;;;;;1.90;1.45;;;;;;;34.57;31.23;98802.13;5024526;28;20030;-63
2021/06/11 10:16:55;;;;;;;3.13;1.80;;;;;;;34.22;27.71;98797.06;5024486;28;20063;-63
2021/06/11 10:19:20;;;;;;;3.50;1.70;;;;;;;34.12;28.28;98807.34;5024503;28;20030;-63
2021/06/11 10:21:46;;;;;;;3.67;1.70;;;;;;;33.81;29.06;98798.09;5024454;28;20368;-63
2021/06/11 10:24:14;;;;;;;1.75;1.30;;;;;;;34.08;29.47;98797.78;5024420;28;20026;-63
2021/06/11 10:26:41;;;;;;;2.90;1.40;;;;;;;34.36;28.46;98796.41;5024622;28;20022;-63
2021/06/11 10:29:07;;;;;;;2.40;1.33;;;;;;;34.29;29.56;98789.91;5024217;28;20022;-63
2021/06/11 10:31:37;;;;;;;2.08;1.42;;;;;;;33.97;28.43;98792.69;5024308;28;20030;-63
2021/06/11 10:34:04;;;;;;;3.60;1.40;;;;;;;33.57;30.53;98789.94;5024305;28;20032;-63
2021/06/11 10:36:33;;;;;;;3.15;1.50;;;;;;;33.92;32.74;98789.63;5024249;28;20032;-63
2021/06/11 10:39:07;;;;;;;2.17;1.38;;;;;;;33.51;30.62;98779.69;5024504;28;20026;-63
2021/06/11 10:42:08;;;;;;;2.33;1.30;;;;;;;33.97;28.31;98784.50;5024270;28;20073;-63
2021/06/11 10:44:43;;;;;;;4.77;1.60;;;;;;;33.65;29.13;98784.47;5023626;28;20030;-63
2021/06/11 10:47:27;;;;;;;2.28;1.38;;;;;;;33.96;32.51;98778.19;5024206;28;20076;-63
2021/06/11 10:50:01;;;;;;;4.53;1.35;;;;;;;33.69;30.07;98774.94;5024083;28;20037;-63
2021/06/11 10:52:38;;;;;;;2.28;1.40;;;;;;;33.87;30.43;98778.34;5024244;28;20084;-63
2021/06/11 10:55:19;;;;;;;4.53;1.42;;;;;;;33.26;30.92;98780.66;5024099;28;20140;-63
2021/06/11 10:57:55;;;;;;;4.27;1.30;;;;;;;33.10;33.13;98782.31;5024007;28;20037;-63
2021/06/11 11:00:23;;;;;;;1.88;1.30;;;;;;;33.25;28.83;98779.81;5024302;28;20022;-63
2021/06/11 11:02:51;;;;;;;2.00;1.20;;;;;;;33.10;28.65;98782.31;5024264;28;20022;-63
2021/06/11 11:05:38;;;;;;;5.07;1.70;;;;;;;33.08;29.95;98778.94;5023931;28;20032;-63
2021/06/11 11:08:06;;;;;;;3.25;1.40;;;;;;;33.29;30.42;98770.28;5024008;28;20064;-63
2021/06/11 11:10:46;;;;;;;1.52;1.20;;;;;;;33.34;31.24;98772.50;5024128;28;20021;-63
2021/06/11 11:13:13;;;;;;;1.27;1.17;;;;;;;33.15;32.50;98776.38;5006437;28;20018;-63
2021/06/11 11:15:41;;;;;;;2.15;1.20;;;;;;;33.10;29.95;98770.56;5024126;28;20018;-63
2021/06/11 11:18:19;;;;;;;2.75;1.20;;;;;;;33.03;29.81;98770.38;5023911;28;20017;-63
2021/06/11 11:20:45;;;;;;;1.92;1.35;;;;;;;32.56;35.42;98766.47;5024124;28;20194;-63
2021/06/11 11:23:16;;;;;;;2.50;1.20;;;;;;;32.46;32.14;98765.72;5023818;28;20085;-63
2021/06/11 11:25:42;;;;;;;3.60;1.30;;;;;;;31.89;32.15;98754.66;5023864;28;20046;-63
2021/06/11 11:28:10;;;;;;;1.98;1.40;;;;;;;31.98;32.63;98770.88;5023990;28;20309;-63
2021/06/11 11:30:37;;;;;;;2.50;1.30;;;;;;;32.04;31.72;98764.78;5023612;28;20026;-63
2021/06/11 11:33:04;;;;;;;1.88;1.25;;;;;;;32.15;32.89;98756.34;5023732;28;20093;-63
2021/06/11 11:35:32;;;;;;;1.65;1.27;;;;;;;31.97;34.17;98758.28;5023724;28;20022;-63
2021/06/11 11:38:04;;;;;;;2.47;1.17;;;;;;;31.86;34.91;98763.97;5023702;28;20026;-63